Time;durP1;ratioP1;P1;durP2;ratioP2;P2;SDS_P1;SDS_P2;PMS_P1;PMS_P2;Temp;Humidity;BMP_temperature;BMP_pressure;BME280_temperature;BME280_humidity;BME280_pressure;Samples;Min_cycle;Max_cycle;Signal;HPM_P1;HPM_P2
2023/07/04 00:00:31;;;;;;;2.00;1.05;;;;;;;;;;5047849;28;20269;-58
2023/07/04 00:02:58;;;;;;;0.98;0.98;;;;;;;;;;5047572;28;20230;-58
2023/07/04 00:05:25;;;;;;;0.88;0.88;;;;;;;;;;5047325;28;20234;-58
2023/07/04 00:07:53;;;;;;;1.08;1.02;;;;;;;;;;5047786;28;20215;-58
2023/07/04 00:10:20;;;;;;;1.00;1.00;;;;;;;;;;5047906;28;20239;-59
2023/07/04 00:12:48;;;;;;;0.90;0.85;;;;;;;;;;5047462;28;20281;-58
2023/07/04 00:15:15;;;;;;;0.90;0.90;;;;;;;;;;5048125;28;20708;-58
2023/07/04 00:17:43;;;;;;;1.08;0.93;;;;;;;;;;5047380;28;20208;-57
2023/07/04 00:20:12;;;;;;;1.10;1.10;;;;;;;;;;5047289;28;20235;-58
2023/07/04 00:22:40;;;;;;;1.10;1.00;;;;;;;;;;5047295;28;20196;-58
2023/07/04 00:25:09;;;;;;;1.10;1.00;;;;;;;;;;5047443;28;20506;-58
2023/07/04 00:27:36;;;;;;;1.20;1.15;;;;;;;;;;5047785;28;20204;-58
2023/07/04 00:30:04;;;;;;;0.90;0.90;;;;;;;;;;5039543;28;20211;-58
2023/07/04 00:32:31;;;;;;;1.05;0.98;;;;;;;;;;5047203;28;20208;-58
2023/07/04 00:34:59;;;;;;;3.25;1.48;;;;;;;;;;5047228;28;20333;-58
2023/07/04 00:37:26;;;;;;;1.02;1.02;;;;;;;;;;5047662;28;20203;-58
2023/07/04 00:39:53;;;;;;;1.02;1.02;;;;;;;;;;5046799;28;20226;-58
2023/07/04 00:42:22;;;;;;;1.40;1.10;;;;;;;;;;5047096;28;20255;-58
2023/07/04 00:44:55;;;;;;;0.93;0.93;;;;;;;;;;5047425;28;20255;-59
2023/07/04 00:47:22;;;;;;;1.30;1.20;;;;;;;;;;5047357;28;20872;-58
2023/07/04 00:49:57;;;;;;;2.67;1.27;;;;;;;;;;5045852;28;20211;-58
2023/07/04 00:52:26;;;;;;;4.95;1.35;;;;;;;;;;5033834;28;20199;-58
2023/07/04 00:54:57;;;;;;;1.95;1.00;;;;;;;;;;5047285;28;20212;-58
2023/07/04 00:57:27;;;;;;;2.22;1.10;;;;;;;;;;5046488;28;20204;-58
2023/07/04 00:59:58;;;;;;;1.63;1.35;;;;;;;;;;5044202;28;20681;-58
2023/07/04 01:02:27;;;;;;;4.80;1.27;;;;;;;;;;5044144;28;20207;-58
2023/07/04 01:04:54;;;;;;;1.20;1.20;;;;;;;;;;5046167;28;20204;-58
2023/07/04 01:07:26;;;;;;;1.10;1.10;;;;;;;;;;5043489;28;20721;-58
2023/07/04 01:09:55;;;;;;;2.80;1.00;;;;;;;;;;5046820;28;20206;-58
2023/07/04 01:12:27;;;;;;;1.20;1.10;;;;;;;;;;5046177;28;20693;-58
2023/07/04 01:14:56;;;;;;;1.10;1.10;;;;;;;;;;5046475;28;20204;-58
2023/07/04 01:17:23;;;;;;;1.38;1.30;;;;;;;;;;5047135;28;20776;-58
2023/07/04 01:19:51;;;;;;;1.38;1.27;;;;;;;;;;5030557;28;20231;-58
2023/07/04 01:22:24;;;;;;;0.95;0.95;;;;;;;;;;5045783;28;20231;-58
2023/07/04 01:24:59;;;;;;;1.17;0.95;;;;;;;;;;5047059;28;20698;-59
2023/07/04 01:27:28;;;;;;;1.13;0.93;;;;;;;;;;5046805;28;20443;-56
2023/07/04 01:30:00;;;;;;;0.98;0.95;;;;;;;;;;5046045;28;20210;-56
2023/07/04 01:32:28;;;;;;;1.67;1.20;;;;;;;;;;5046679;28;20610;-59
2023/07/04 01:34:58;;;;;;;1.02;1.02;;;;;;;;;;5046824;28;20364;-58
2023/07/04 01:37:27;;;;;;;1.23;1.13;;;;;;;;;;5046440;28;20211;-56
2023/07/04 01:39:54;;;;;;;1.35;1.25;;;;;;;;;;5045358;28;20208;-56
2023/07/04 01:42:21;;;;;;;1.65;1.17;;;;;;;;;;5048061;28;20937;-56
2023/07/04 01:44:49;;;;;;;1.92;0.98;;;;;;;;;;5050398;28;20260;-56
2023/07/04 01:47:18;;;;;;;1.30;1.30;;;;;;;;;;5049940;28;20249;-59
2023/07/04 01:49:45;;;;;;;2.17;1.10;;;;;;;;;;5050704;28;20286;-56
2023/07/04 01:52:13;;;;;;;1.08;1.00;;;;;;;;;;5050177;28;20212;-56
2023/07/04 01:54:40;;;;;;;1.35;1.35;;;;;;;;;;5049341;28;20207;-56
2023/07/04 01:57:10;;;;;;;2.28;1.27;;;;;;;;;;5050566;28;20783;-58
2023/07/04 01:59:37;;;;;;;1.40;1.40;;;;;;;;;;5049234;28;20208;-56
2023/07/04 02:02:06;;;;;;;1.10;1.10;;;;;;;;;;5049533;28;20204;-56
2023/07/04 02:04:33;;;;;;;1.27;1.27;;;;;;;;;;5049962;28;20212;-56
2023/07/04 02:07:00;;;;;;;1.42;1.30;;;;;;;;;;5050459;28;20235;-56
2023/07/04 02:09:27;;;;;;;1.15;0.98;;;;;;;;;;5049291;28;20212;-56
2023/07/04 02:11:54;;;;;;;1.27;1.27;;;;;;;;;;5049972;28;20229;-56
2023/07/04 02:14:21;;;;;;;1.20;1.10;;;;;;;;;;5035877;28;20208;-56
2023/07/04 02:16:49;;;;;;;1.42;1.40;;;;;;;;;;5041086;28;20216;-59
2023/07/04 02:19:18;;;;;;;1.80;1.20;;;;;;;;;;5050168;28;20689;-57
2023/07/04 02:21:45;;;;;;;0.98;0.95;;;;;;;;;;5050556;28;20204;-56
2023/07/04 02:24:12;;;;;;;1.35;1.30;;;;;;;;;;5050117;28;20258;-57
2023/07/04 02:26:39;;;;;;;1.48;1.25;;;;;;;;;;5049925;28;20235;-57
2023/07/04 02:29:06;;;;;;;1.15;1.15;;;;;;;;;;5046874;28;20218;-57
2023/07/04 02:31:33;;;;;;;1.83;1.27;;;;;;;;;;5049936;28;20215;-57
2023/07/04 02:34:00;;;;;;;1.98;1.00;;;;;;;;;;5050032;28;20223;-56
2023/07/04 02:36:29;;;;;;;1.27;1.27;;;;;;;;;;5049817;28;20196;-57
2023/07/04 02:38:56;;;;;;;1.08;1.08;;;;;;;;;;5029736;28;20213;-56
2023/07/04 02:41:23;;;;;;;1.85;1.20;;;;;;;;;;5043396;28;20216;-56
2023/07/04 02:43:50;;;;;;;1.35;1.23;;;;;;;;;;5048988;28;20290;-57
2023/07/04 02:46:17;;;;;;;1.02;0.90;;;;;;;;;;5049882;28;20242;-57
2023/07/04 02:48:44;;;;;;;1.10;1.10;;;;;;;;;;5050080;28;20218;-57
2023/07/04 02:51:11;;;;;;;1.08;0.98;;;;;;;;;;5049239;28;20208;-57
2023/07/04 02:53:39;;;;;;;1.10;0.90;;;;;;;;;;5047684;28;20738;-57
2023/07/04 02:56:07;;;;;;;0.98;0.98;;;;;;;;;;5049449;28;20395;-57
2023/07/04 02:58:34;;;;;;;1.10;1.00;;;;;;;;;;5049431;28;20644;-57
2023/07/04 03:01:03;;;;;;;1.48;1.17;;;;;;;;;;5048837;28;20208;-56
2023/07/04 03:03:30;;;;;;;1.05;1.05;;;;;;;;;;5049354;28;20199;-57
2023/07/04 03:05:58;;;;;;;1.77;1.67;;;;;;;;;;5049060;28;20235;-57
2023/07/04 03:08:25;;;;;;;1.27;1.08;;;;;;;;;;5049167;28;20210;-57
2023/07/04 03:10:53;;;;;;;1.27;1.27;;;;;;;;;;5049315;28;20219;-57
2023/07/04 03:13:20;;;;;;;1.08;1.08;;;;;;;;;;5048730;28;20218;-57
2023/07/04 03:15:47;;;;;;;1.10;1.10;;;;;;;;;;5048863;28;20238;-57
2023/07/04 03:18:14;;;;;;;1.63;1.27;;;;;;;;;;5049212;28;20334;-57
2023/07/04 03:20:42;;;;;;;1.50;1.40;;;;;;;;;;5049548;28;20653;-56
2023/07/04 03:23:09;;;;;;;2.35;1.15;;;;;;;;;;5048608;28;20203;-57
2023/07/04 03:25:36;;;;;;;3.03;1.38;;;;;;;;;;5049083;28;20218;-57
2023/07/04 03:28:04;;;;;;;1.08;1.08;;;;;;;;;;5048679;28;20242;-57
2023/07/04 03:30:31;;;;;;;0.93;0.93;;;;;;;;;;5048985;28;20309;-57
2023/07/04 03:32:58;;;;;;;2.97;1.25;;;;;;;;;;5048488;28;20218;-57
2023/07/04 03:35:26;;;;;;;3.28;1.25;;;;;;;;;;5048889;28;20846;-56
2023/07/04 03:37:53;;;;;;;3.55;1.25;;;;;;;;;;5048012;28;20218;-55
2023/07/04 03:40:20;;;;;;;2.35;1.63;;;;;;;;;;5047724;28;20203;-57
2023/07/04 03:42:47;;;;;;;1.35;1.25;;;;;;;;;;5048713;28;20236;-57
2023/07/04 03:45:15;;;;;;;1.50;1.40;;;;;;;;;;5030482;28;20259;-56
2023/07/04 03:47:42;;;;;;;1.23;1.23;;;;;;;;;;5032551;28;20227;-57
2023/07/04 03:50:13;;;;;;;1.60;1.50;;;;;;;;;;5047878;28;20208;-58
2023/07/04 03:52:40;;;;;;;1.35;1.30;;;;;;;;;;5047674;28;20585;-57
2023/07/04 03:55:08;;;;;;;1.20;1.20;;;;;;;;;;5047797;28;20203;-57
2023/07/04 03:57:35;;;;;;;1.08;1.08;;;;;;;;;;5048171;28;20213;-57
2023/07/04 04:00:05;;;;;;;1.17;1.08;;;;;;;;;;5048209;28;20211;-57
2023/07/04 04:02:36;;;;;;;0.98;0.98;;;;;;;;;;5048206;28;20692;-57
2023/07/04 04:05:04;;;;;;;1.55;1.38;;;;;;;;;;5047003;28;20212;-57
2023/07/04 04:07:31;;;;;;;1.63;1.35;;;;;;;;;;5047645;28;20729;-57
2023/07/04 04:09:58;;;;;;;2.33;1.50;;;;;;;;;;5047903;28;20238;-57
2023/07/04 04:12:25;;;;;;;2.05;1.50;;;;;;;;;;5047854;28;20656;-57
2023/07/04 04:14:52;;;;;;;3.05;1.45;;;;;;;;;;5047685;28;20207;-57
2023/07/04 04:17:19;;;;;;;1.45;1.42;;;;;;;;;;5047563;28;20270;-57
2023/07/04 04:19:47;;;;;;;2.63;1.20;;;;;;;;;;5047950;28;20204;-56
2023/07/04 04:22:15;;;;;;;2.22;1.40;;;;;;;;;;5048031;28;20586;-56
2023/07/04 04:24:42;;;;;;;1.30;1.30;;;;;;;;;;5047482;28;20654;-57
2023/07/04 04:27:11;;;;;;;1.40;1.30;;;;;;;;;;5046043;28;20724;-57
2023/07/04 04:29:38;;;;;;;1.25;1.25;;;;;;;;;;5045379;28;20203;-57
2023/07/04 04:32:05;;;;;;;4.00;1.27;;;;;;;;;;5047822;28;20257;-57
2023/07/04 04:34:32;;;;;;;1.23;1.00;;;;;;;;;;5048070;28;20218;-57
2023/07/04 04:37:02;;;;;;;1.52;1.52;;;;;;;;;;5046720;28;20214;-57
2023/07/04 04:39:31;;;;;;;2.00;1.10;;;;;;;;;;5047534;28;20199;-57
2023/07/04 04:41:58;;;;;;;1.60;1.60;;;;;;;;;;5047389;28;20724;-57
2023/07/04 04:44:25;;;;;;;2.67;1.65;;;;;;;;;;5047317;28;20240;-57
2023/07/04 04:46:52;;;;;;;1.48;1.38;;;;;;;;;;5047234;28;20231;-57
2023/07/04 04:49:21;;;;;;;1.27;1.27;;;;;;;;;;5047193;28;20203;-57
2023/07/04 04:51:51;;;;;;;1.27;1.17;;;;;;;;;;5047392;28;20257;-57
2023/07/04 04:54:20;;;;;;;3.15;1.33;;;;;;;;;;5047870;28;20270;-57
2023/07/04 04:56:47;;;;;;;2.00;1.50;;;;;;;;;;5047552;28;20208;-57
2023/07/04 04:59:14;;;;;;;1.30;1.30;;;;;;;;;;5038366;28;20266;-57
2023/07/04 05:01:41;;;;;;;2.60;1.55;;;;;;;;;;5042358;28;20195;-56
2023/07/04 05:04:08;;;;;;;1.42;1.33;;;;;;;;;;5046466;28;20409;-58
2023/07/04 05:06:36;;;;;;;1.33;1.10;;;;;;;;;;5046768;28;20231;-59
2023/07/04 05:09:04;;;;;;;3.75;1.35;;;;;;;;;;5047730;28;20212;-58
2023/07/04 05:11:34;;;;;;;1.33;1.33;;;;;;;;;;5046716;28;20203;-59
2023/07/04 05:14:01;;;;;;;2.67;1.40;;;;;;;;;;5046793;28;20237;-56
2023/07/04 05:16:28;;;;;;;3.72;1.30;;;;;;;;;;5045503;28;20232;-57
2023/07/04 05:18:55;;;;;;;3.58;1.48;;;;;;;;;;5046828;28;20211;-56
2023/07/04 05:21:23;;;;;;;1.42;1.33;;;;;;;;;;5046881;28;20207;-57
2023/07/04 05:23:52;;;;;;;1.95;1.52;;;;;;;;;;5046885;28;20203;-57
2023/07/04 05:26:20;;;;;;;4.25;1.40;;;;;;;;;;5039251;28;20312;-57
2023/07/04 05:28:48;;;;;;;1.80;1.70;;;;;;;;;;5041078;28;20583;-56
2023/07/04 05:31:16;;;;;;;4.65;1.45;;;;;;;;;;5046618;28;20211;-56
2023/07/04 05:33:44;;;;;;;2.38;1.27;;;;;;;;;;5047081;28;20569;-56
2023/07/04 05:36:12;;;;;;;1.35;1.30;;;;;;;;;;5046175;28;20211;-57
2023/07/04 05:38:39;;;;;;;1.73;1.42;;;;;;;;;;5046382;28;20208;-56
2023/07/04 05:41:09;;;;;;;2.35;1.60;;;;;;;;;;5045870;28;20203;-57
2023/07/04 05:43:36;;;;;;;1.52;1.42;;;;;;;;;;5045248;28;20306;-58
2023/07/04 05:46:04;;;;;;;1.98;1.50;;;;;;;;;;5044298;28;20209;-58
2023/07/04 05:48:31;;;;;;;1.75;1.42;;;;;;;;;;5046503;28;20230;-58
2023/07/04 05:50:59;;;;;;;2.05;1.20;;;;;;;;;;5042181;28;20622;-57
2023/07/04 05:53:27;;;;;;;2.22;1.33;;;;;;;;;;5044338;28;20204;-59
2023/07/04 05:56:05;;;;;;;2.53;1.55;;;;;;;;;;5045947;28;20268;-58
2023/07/04 05:58:32;;;;;;;2.05;1.08;;;;;;;;;;5046220;28;20698;-58
2023/07/04 06:01:04;;;;;;;1.40;1.40;;;;;;;;;;5045908;28;20218;-58
2023/07/04 06:03:32;;;;;;;1.98;1.30;;;;;;;;;;5046032;28;20208;-58
2023/07/04 06:06:00;;;;;;;2.15;1.73;;;;;;;;;;5028218;28;20254;-58
2023/07/04 06:08:27;;;;;;;2.05;1.50;;;;;;;;;;5031198;28;20709;-57
2023/07/04 06:11:00;;;;;;;1.58;1.45;;;;;;;;;;5033875;28;20616;-57
2023/07/04 06:13:28;;;;;;;2.20;1.67;;;;;;;;;;5040903;28;20204;-57
2023/07/04 06:15:55;;;;;;;2.60;1.40;;;;;;;;;;5034229;28;20209;-57
2023/07/04 06:18:23;;;;;;;1.58;1.48;;;;;;;;;;5025970;28;20254;-58
2023/07/04 06:20:51;;;;;;;2.08;1.70;;;;;;;;;;5035364;28;20208;-58
2023/07/04 06:23:19;;;;;;;1.95;1.42;;;;;;;;;;5041657;28;20232;-58
2023/07/04 06:25:46;;;;;;;2.38;1.30;;;;;;;;;;5036754;28;20383;-57
2023/07/04 06:28:13;;;;;;;2.50;1.58;;;;;;;;;;5044333;28;20220;-58
2023/07/04 06:30:40;;;;;;;1.23;1.10;;;;;;;;;;5047363;28;20200;-57
2023/07/04 06:33:07;;;;;;;3.33;1.85;;;;;;;;;;5042874;28;20207;-57
2023/07/04 06:35:34;;;;;;;3.30;1.40;;;;;;;;;;5048797;28;20545;-57
2023/07/04 06:38:03;;;;;;;4.00;1.80;;;;;;;;;;5047527;28;20211;-60
2023/07/04 06:40:30;;;;;;;1.60;1.45;;;;;;;;;;5029350;28;20212;-57
2023/07/04 06:42:57;;;;;;;3.75;1.52;;;;;;;;;;5037677;28;20601;-57
2023/07/04 06:45:24;;;;;;;2.55;1.50;;;;;;;;;;5048434;28;20235;-57
2023/07/04 06:47:51;;;;;;;1.60;1.50;;;;;;;;;;5048321;28;20232;-57
2023/07/04 06:50:18;;;;;;;3.08;1.67;;;;;;;;;;5049184;28;20223;-56
2023/07/04 06:52:45;;;;;;;2.47;1.83;;;;;;;;;;5048905;28;20675;-64
2023/07/04 06:55:13;;;;;;;1.67;1.58;;;;;;;;;;5040566;28;20219;-61
2023/07/04 06:57:40;;;;;;;3.17;1.65;;;;;;;;;;5048300;28;20192;-61
2023/07/04 07:00:08;;;;;;;1.35;1.25;;;;;;;;;;5029156;28;20556;-61
2023/07/04 07:02:35;;;;;;;3.40;1.30;;;;;;;;;;5048469;28;20290;-61
2023/07/04 07:05:02;;;;;;;2.35;1.45;;;;;;;;;;5047472;28;20207;-62
2023/07/04 07:07:29;;;;;;;2.25;1.30;;;;;;;;;;5047420;28;20219;-62
2023/07/04 07:09:56;;;;;;;1.48;1.38;;;;;;;;;;5033862;28;20228;-62
2023/07/04 07:12:25;;;;;;;2.50;1.10;;;;;;;;;;5033786;28;20243;-62
2023/07/04 07:14:52;;;;;;;1.70;1.52;;;;;;;;;;5027069;28;20238;-62
2023/07/04 07:17:19;;;;;;;1.30;1.20;;;;;;;;;;5042353;28;20204;-62
2023/07/04 07:19:46;;;;;;;4.75;1.67;;;;;;;;;;5048535;28;20207;-62
2023/07/04 07:22:13;;;;;;;1.30;1.20;;;;;;;;;;5047243;28;20218;-61
2023/07/04 07:24:40;;;;;;;1.33;1.20;;;;;;;;;;5048078;28;20212;-61
2023/07/04 07:27:08;;;;;;;1.48;1.20;;;;;;;;;;5048009;28;20697;-61
2023/07/04 07:29:36;;;;;;;1.55;1.33;;;;;;;;;;5041338;28;20212;-61
2023/07/04 07:32:07;;;;;;;2.47;1.40;;;;;;;;;;5028655;28;20212;-61
2023/07/04 07:34:34;;;;;;;1.20;1.10;;;;;;;;;;5030727;28;20214;-62
2023/07/04 07:37:02;;;;;;;3.75;0.95;;;;;;;;;;5047969;28;20302;-62
2023/07/04 07:39:29;;;;;;;1.63;1.40;;;;;;;;;;5027892;28;20367;-62
2023/07/04 07:41:56;;;;;;;2.97;1.55;;;;;;;;;;5041338;28;20740;-61
2023/07/04 07:44:23;;;;;;;1.85;1.33;;;;;;;;;;5046459;28;20250;-61
2023/07/04 07:46:51;;;;;;;1.38;1.20;;;;;;;;;;5047722;28;20210;-61
2023/07/04 07:49:18;;;;;;;2.72;1.52;;;;;;;;;;5047727;28;20234;-61
2023/07/04 07:51:45;;;;;;;1.65;1.33;;;;;;;;;;5046190;28;20566;-61
2023/07/04 07:54:14;;;;;;;1.35;1.17;;;;;;;;;;5047578;28;20216;-61
2023/07/04 07:56:44;;;;;;;1.40;1.30;;;;;;;;;;5047593;28;20235;-61
2023/07/04 07:59:11;;;;;;;1.67;1.25;;;;;;;;;;5027529;28;20723;-61
2023/07/04 08:01:39;;;;;;;2.38;1.33;;;;;;;;;;5025860;28;20261;-61
2023/07/04 08:04:08;;;;;;;0.90;0.90;;;;;;;;;;5027265;28;20212;-61
2023/07/04 08:06:36;;;;;;;3.90;1.15;;;;;;;;;;5027075;28;20216;-61
2023/07/04 08:09:04;;;;;;;1.00;1.00;;;;;;;;;;5027394;28;20232;-61
2023/07/04 08:11:31;;;;;;;1.52;1.42;;;;;;;;;;5047338;28;20292;-61
2023/07/04 08:13:58;;;;;;;1.42;1.20;;;;;;;;;;5045782;28;20223;-61
2023/07/04 08:16:27;;;;;;;2.25;1.30;;;;;;;;;;5043480;28;20199;-61
2023/07/04 08:18:54;;;;;;;1.23;1.13;;;;;;;;;;5046321;28;20218;-61
2023/07/04 08:21:23;;;;;;;2.97;0.90;;;;;;;;;;5045526;28;20243;-63
2023/07/04 08:23:50;;;;;;;3.90;1.30;;;;;;;;;;5036448;28;20210;-61
2023/07/04 08:26:19;;;;;;;3.30;1.20;;;;;;;;;;5044623;28;20203;-60
2023/07/04 08:28:46;;;;;;;2.50;1.42;;;;;;;;;;5042434;28;20298;-61
2023/07/04 08:31:13;;;;;;;1.30;1.20;;;;;;;;;;5046206;28;20207;-61
2023/07/04 08:33:40;;;;;;;2.83;1.52;;;;;;;;;;5033159;28;20210;-58
2023/07/04 08:36:09;;;;;;;3.60;1.40;;;;;;;;;;5039670;28;20204;-57
2023/07/04 08:38:38;;;;;;;2.03;1.40;;;;;;;;;;5045062;28;20207;-58
2023/07/04 08:41:11;;;;;;;2.20;1.35;;;;;;;;;;5046287;28;20210;-57
2023/07/04 08:43:41;;;;;;;1.40;1.40;;;;;;;;;;5044810;28;20224;-57
2023/07/04 08:46:09;;;;;;;2.78;1.50;;;;;;;;;;5046180;28;20256;-57
2023/07/04 08:48:37;;;;;;;2.50;1.13;;;;;;;;;;5045655;28;20227;-56
2023/07/04 08:51:05;;;;;;;1.50;1.40;;;;;;;;;;5042529;28;20200;-57
2023/07/04 08:53:32;;;;;;;1.02;0.95;;;;;;;;;;5046188;28;20210;-56
2023/07/04 08:56:05;;;;;;;2.90;1.30;;;;;;;;;;5045640;28;20208;-57
2023/07/04 08:58:35;;;;;;;1.98;1.38;;;;;;;;;;5041198;28;20212;-56
2023/07/04 09:01:04;;;;;;;2.45;1.42;;;;;;;;;;5041578;28;20208;-55
2023/07/04 09:03:34;;;;;;;6.00;1.50;;;;;;;;;;5044193;28;20226;-57
2023/07/04 09:06:06;;;;;;;4.10;1.27;;;;;;;;;;5043409;28;20925;-57
2023/07/04 09:08:36;;;;;;;1.73;1.42;;;;;;;;;;5046551;28;20243;-58
2023/07/04 09:11:07;;;;;;;4.40;1.52;;;;;;;;;;5046211;28;20203;-59
2023/07/04 09:13:37;;;;;;;1.52;1.40;;;;;;;;;;5046388;28;20216;-57
2023/07/04 09:16:07;;;;;;;3.35;1.50;;;;;;;;;;5044746;28;20561;-57
2023/07/04 09:18:36;;;;;;;1.77;1.60;;;;;;;;;;5046593;28;20207;-57
2023/07/04 09:21:06;;;;;;;1.80;1.70;;;;;;;;;;5046025;28;20204;-57
2023/07/04 09:23:33;;;;;;;1.60;1.50;;;;;;;;;;5046582;28;20219;-59
2023/07/04 09:26:00;;;;;;;1.60;1.50;;;;;;;;;;5046000;28;20203;-58
2023/07/04 09:28:29;;;;;;;1.95;1.30;;;;;;;;;;5045866;28;20243;-58
2023/07/04 09:30:59;;;;;;;1.50;1.40;;;;;;;;;;5045868;28;20433;-58
2023/07/04 09:33:27;;;;;;;1.73;1.63;;;;;;;;;;5039065;28;20626;-58
2023/07/04 09:35:54;;;;;;;1.75;1.35;;;;;;;;;;5034496;28;20209;-58
2023/07/04 09:38:21;;;;;;;1.40;1.30;;;;;;;;;;5033265;28;20211;-58
2023/07/04 09:40:52;;;;;;;1.40;1.30;;;;;;;;;;5040204;28;20216;-58
2023/07/04 09:43:27;;;;;;;1.40;1.30;;;;;;;;;;5042017;28;20277;-58
2023/07/04 09:46:10;;;;;;;1.95;1.60;;;;;;;;;;5025643;28;20263;-58
2023/07/04 09:48:37;;;;;;;1.42;1.38;;;;;;;;;;5034731;28;20231;-58
2023/07/04 09:51:16;;;;;;;1.83;1.55;;;;;;;;;;5045527;28;20249;-58
2023/07/04 09:53:43;;;;;;;2.03;1.77;;;;;;;;;;5045697;28;20216;-58
2023/07/04 09:56:11;;;;;;;3.60;1.50;;;;;;;;;;5044552;28;20322;-59
2023/07/04 09:58:38;;;;;;;2.35;1.60;;;;;;;;;;5029495;28;20209;-58
2023/07/04 10:01:13;;;;;;;2.38;1.80;;;;;;;;;;5028320;28;20294;-59
2023/07/04 10:03:41;;;;;;;1.83;1.80;;;;;;;;;;5038808;28;20262;-59
2023/07/04 10:06:08;;;;;;;2.28;1.70;;;;;;;;;;5029721;28;20223;-59
2023/07/04 10:08:49;;;;;;;2.78;1.80;;;;;;;;;;5049055;28;20242;-58
2023/07/04 10:11:24;;;;;;;2.00;1.90;;;;;;;;;;5049615;28;20242;-58
2023/07/04 10:13:59;;;;;;;2.15;1.80;;;;;;;;;;5049739;28;20223;-58
2023/07/04 10:16:28;;;;;;;2.13;1.77;;;;;;;;;;5049605;28;20219;-58
2023/07/04 10:19:03;;;;;;;2.35;2.00;;;;;;;;;;5049344;28;20225;-57
2023/07/04 10:21:30;;;;;;;3.45;1.90;;;;;;;;;;5049733;28;20206;-57
2023/07/04 10:23:59;;;;;;;2.08;1.98;;;;;;;;;;5049138;28;20234;-59
2023/07/04 10:26:26;;;;;;;2.05;1.88;;;;;;;;;;5044509;28;20207;-58
2023/07/04 10:28:53;;;;;;;3.97;1.90;;;;;;;;;;5043695;28;20677;-59
2023/07/04 10:31:22;;;;;;;1.83;1.73;;;;;;;;;;5029513;28;20215;-59
2023/07/04 10:33:52;;;;;;;2.42;2.22;;;;;;;;;;5030278;28;20243;-58
2023/07/04 10:36:22;;;;;;;2.97;2.75;;;;;;;;;;5048654;28;20204;-60
2023/07/04 10:38:52;;;;;;;3.30;2.35;;;;;;;;;;5049279;28;20207;-58
2023/07/04 10:41:22;;;;;;;2.42;2.33;;;;;;;;;;5048939;28;20208;-58
2023/07/04 10:43:51;;;;;;;2.60;2.47;;;;;;;;;;5039374;28;20706;-58
2023/07/04 10:46:22;;;;;;;2.47;2.35;;;;;;;;;;5037789;28;20381;-58
2023/07/04 10:48:51;;;;;;;2.38;2.15;;;;;;;;;;5038366;28;20297;-58
2023/07/04 10:51:23;;;;;;;2.78;2.53;;;;;;;;;;5045699;28;20236;-59
2023/07/04 10:53:50;;;;;;;3.75;2.70;;;;;;;;;;5041388;28;20208;-58
2023/07/04 10:56:21;;;;;;;2.75;2.58;;;;;;;;;;5030799;28;20212;-58
2023/07/04 10:58:51;;;;;;;2.33;2.20;;;;;;;;;;5029427;28;20224;-58
2023/07/04 11:01:20;;;;;;;2.53;2.38;;;;;;;;;;5037015;28;20204;-58
2023/07/04 11:03:50;;;;;;;3.90;2.20;;;;;;;;;;5047538;28;20211;-59
2023/07/04 11:06:19;;;;;;;2.60;2.45;;;;;;;;;;5044493;28;20215;-59
2023/07/04 11:08:48;;;;;;;4.45;2.60;;;;;;;;;;5035267;28;20707;-58
2023/07/04 11:11:16;;;;;;;3.33;2.53;;;;;;;;;;5040989;28;20216;-58
2023/07/04 11:13:46;;;;;;;3.47;3.13;;;;;;;;;;5046860;28;20356;-58
2023/07/04 11:16:13;;;;;;;3.10;2.67;;;;;;;;;;5043345;28;20210;-58
2023/07/04 11:18:44;;;;;;;2.15;2.05;;;;;;;;;;5046405;28;20642;-58
2023/07/04 11:21:12;;;;;;;3.15;2.95;;;;;;;;;;5047026;28;20207;-58
2023/07/04 11:23:47;;;;;;;3.72;3.10;;;;;;;;;;5044605;28;20223;-58
2023/07/04 11:26:16;;;;;;;3.95;3.28;;;;;;;;;;5042380;28;20212;-58
2023/07/04 11:28:45;;;;;;;3.28;3.08;;;;;;;;;;5046593;28;20312;-58
2023/07/04 11:31:17;;;;;;;4.10;3.80;;;;;;;;;;5043829;28;20206;-58
2023/07/04 11:34:01;;;;;;;3.03;2.83;;;;;;;;;;5045995;28;20208;-58
2023/07/04 11:36:31;;;;;;;3.70;3.38;;;;;;;;;;5046720;28;20561;-58
2023/07/04 11:38:59;;;;;;;3.65;3.22;;;;;;;;;;5046173;28;20694;-58
2023/07/04 11:41:29;;;;;;;3.15;2.80;;;;;;;;;;5033758;28;20409;-58
2023/07/04 11:43:58;;;;;;;3.20;2.97;;;;;;;;;;5041288;28;20240;-58
2023/07/04 11:46:26;;;;;;;3.38;3.17;;;;;;;;;;5043827;28;20212;-60
2023/07/04 11:48:56;;;;;;;4.20;3.85;;;;;;;;;;5035018;28;20335;-60
2023/07/04 11:51:24;;;;;;;3.38;3.10;;;;;;;;;;5047126;28;20791;-59
2023/07/04 11:53:55;;;;;;;3.30;3.10;;;;;;;;;;5046122;28;20216;-59
2023/07/04 11:56:35;;;;;;;4.45;3.40;;;;;;;;;;5047387;28;20230;-60
2023/07/04 11:59:22;;;;;;;3.63;3.33;;;;;;;;;;5047427;28;20684;-58
2023/07/04 12:02:04;;;;;;;3.13;2.88;;;;;;;;;;5046216;28;20700;-58
2023/07/04 12:04:47;;;;;;;4.38;3.30;;;;;;;;;;5039255;28;20250;-58
2023/07/04 12:07:18;;;;;;;4.07;3.75;;;;;;;;;;5032975;28;20200;-58
2023/07/04 12:09:47;;;;;;;3.53;3.22;;;;;;;;;;5046517;28;20574;-58
2023/07/04 12:12:18;;;;;;;3.95;3.08;;;;;;;;;;5038031;28;20220;-63
2023/07/04 12:14:47;;;;;;;4.22;3.10;;;;;;;;;;5046608;28;20299;-58
2023/07/04 12:17:15;;;;;;;3.53;3.22;;;;;;;;;;5044548;28;20232;-58
2023/07/04 12:19:42;;;;;;;4.03;3.70;;;;;;;;;;5046045;28;20211;-58
2023/07/04 12:22:15;;;;;;;4.53;3.47;;;;;;;;;;5047211;28;20601;-58
2023/07/04 12:24:44;;;;;;;3.92;3.63;;;;;;;;;;5046124;28;20638;-62
2023/07/04 12:27:12;;;;;;;4.38;3.33;;;;;;;;;;5045012;28;20211;-62
2023/07/04 12:29:45;;;;;;;3.45;3.15;;;;;;;;;;5045832;28;20318;-62
2023/07/04 12:32:18;;;;;;;3.90;3.60;;;;;;;;;;5046373;28;20203;-63
2023/07/04 12:34:45;;;;;;;3.95;3.55;;;;;;;;;;5041611;28;20670;-62
2023/07/04 12:37:14;;;;;;;5.03;3.83;;;;;;;;;;5025679;28;20212;-62
2023/07/04 12:39:44;;;;;;;3.40;3.05;;;;;;;;;;5039278;28;20335;-61
2023/07/04 12:42:14;;;;;;;6.25;3.47;;;;;;;;;;5025919;28;20661;-62
2023/07/04 12:44:41;;;;;;;5.28;3.63;;;;;;;;;;5036693;28;20387;-61
2023/07/04 12:47:12;;;;;;;3.63;3.20;;;;;;;;;;5042494;28;20210;-61
2023/07/04 12:49:41;;;;;;;4.93;3.20;;;;;;;;;;5045908;28;20310;-61
2023/07/04 12:52:08;;;;;;;3.30;3.10;;;;;;;;;;5046084;28;20261;-62
2023/07/04 12:54:36;;;;;;;3.42;3.13;;;;;;;;;;5041296;28;20201;-61
2023/07/04 12:57:04;;;;;;;3.28;3.05;;;;;;;;;;5034268;28;20739;-63
2023/07/04 12:59:32;;;;;;;3.45;3.15;;;;;;;;;;5044272;28;20196;-62
2023/07/04 13:02:00;;;;;;;3.15;2.85;;;;;;;;;;5045142;28;20216;-60
2023/07/04 13:04:27;;;;;;;4.15;3.85;;;;;;;;;;5046528;28;20207;-60
2023/07/04 13:06:56;;;;;;;4.10;3.70;;;;;;;;;;5046383;28;20207;-61
2023/07/04 13:09:23;;;;;;;3.13;2.92;;;;;;;;;;5046564;28;20228;-61
2023/07/04 13:11:50;;;;;;;3.80;3.50;;;;;;;;;;5041722;28;20204;-60
2023/07/04 13:14:22;;;;;;;3.38;3.13;;;;;;;;;;5039708;28;20250;-60
2023/07/04 13:16:49;;;;;;;4.85;3.40;;;;;;;;;;5046018;28;20234;-60
2023/07/04 13:19:18;;;;;;;3.50;3.30;;;;;;;;;;5044187;28;20218;-60
2023/07/04 13:21:47;;;;;;;4.45;3.42;;;;;;;;;;5030232;28;20299;-60
2023/07/04 13:24:30;;;;;;;3.40;3.20;;;;;;;;;;5026722;28;20307;-60
2023/07/04 13:27:09;;;;;;;3.83;3.25;;;;;;;;;;5041931;28;20269;-60
2023/07/04 13:29:37;;;;;;;3.80;2.78;;;;;;;;;;5046560;28;20227;-60
2023/07/04 13:32:20;;;;;;;2.97;2.55;;;;;;;;;;5046363;28;20227;-60
2023/07/04 13:34:47;;;;;;;5.20;3.20;;;;;;;;;;5046463;28;20669;-60
2023/07/04 13:37:15;;;;;;;2.78;2.65;;;;;;;;;;5046192;28;20215;-60
2023/07/04 13:39:42;;;;;;;3.53;2.35;;;;;;;;;;5049761;28;20234;-60
2023/07/04 13:42:11;;;;;;;2.88;2.78;;;;;;;;;;5049661;28;20223;-60
2023/07/04 13:44:39;;;;;;;3.17;2.83;;;;;;;;;;5050693;28;20239;-61
2023/07/04 13:47:08;;;;;;;3.33;2.65;;;;;;;;;;5050430;28;20222;-60
2023/07/04 13:49:35;;;;;;;4.85;2.70;;;;;;;;;;5048709;28;20264;-59
2023/07/04 13:52:02;;;;;;;3.33;3.03;;;;;;;;;;5040705;28;20208;-60
2023/07/04 13:54:29;;;;;;;2.80;2.70;;;;;;;;;;5046696;28;20207;-60
2023/07/04 13:56:56;;;;;;;6.30;2.70;;;;;;;;;;5035279;28;20730;-60
2023/07/04 13:59:23;;;;;;;2.58;2.47;;;;;;;;;;5043127;28;20211;-60
2023/07/04 14:01:51;;;;;;;3.45;3.00;;;;;;;;;;5050178;28;20215;-62
2023/07/04 14:04:18;;;;;;;4.32;3.38;;;;;;;;;;5049000;28;20211;-60
2023/07/04 14:06:51;;;;;;;3.33;3.03;;;;;;;;;;5049898;28;20216;-60
2023/07/04 14:09:18;;;;;;;5.57;3.28;;;;;;;;;;5045667;28;20622;-59
2023/07/04 14:11:45;;;;;;;5.70;4.10;;;;;;;;;;5045310;28;20208;-59
2023/07/04 14:14:12;;;;;;;3.53;3.05;;;;;;;;;;5049089;28;20206;-59
2023/07/04 14:16:39;;;;;;;3.00;2.80;;;;;;;;;;5046869;28;20204;-60
2023/07/04 14:19:08;;;;;;;5.07;3.05;;;;;;;;;;5046494;28;20646;-60
2023/07/04 14:21:35;;;;;;;3.40;3.08;;;;;;;;;;5047168;28;20247;-62
2023/07/04 14:24:02;;;;;;;3.15;2.70;;;;;;;;;;5039986;28;20203;-65
2023/07/04 14:26:29;;;;;;;4.13;2.80;;;;;;;;;;5039445;28;20255;-61
2023/07/04 14:28:56;;;;;;;3.63;3.33;;;;;;;;;;5043552;28;20717;-62
2023/07/04 14:31:24;;;;;;;3.28;2.83;;;;;;;;;;5048558;28;20235;-62
2023/07/04 14:33:51;;;;;;;3.00;2.80;;;;;;;;;;5048318;28;20614;-61
2023/07/04 14:36:20;;;;;;;3.00;2.80;;;;;;;;;;5042913;28;20219;-61
2023/07/04 14:38:47;;;;;;;2.65;2.53;;;;;;;;;;5048383;28;20234;-61
2023/07/04 14:41:14;;;;;;;2.92;2.72;;;;;;;;;;5042073;28;20281;-61
2023/07/04 14:43:42;;;;;;;4.25;3.00;;;;;;;;;;5048518;28;20775;-61
2023/07/04 14:46:09;;;;;;;4.75;3.33;;;;;;;;;;5031270;28;20266;-61
2023/07/04 14:48:37;;;;;;;3.00;2.80;;;;;;;;;;5036672;28;20294;-60
2023/07/04 14:51:05;;;;;;;3.45;2.97;;;;;;;;;;5039311;28;20621;-60